sensor_id;sensor_type;location;lat;lon;timestamp;pressure;altitude;pressure_sealevel;temperature;humidity
43818;BME280;29868;47.360;18.984;2023-11-21T00:02:25;61829.97;;;4.12;100.00
43818;BME280;29868;47.360;18.984;2023-11-21T00:04:50;61831.63;;;4.13;100.00
43818;BME280;29868;47.360;18.984;2023-11-21T00:07:16;61833.06;;;4.12;100.00
43818;BME280;29868;47.360;18.984;2023-11-21T00:09:41;61830.84;;;4.10;100.00
43818;BME280;29868;47.360;18.984;2023-11-21T00:12:08;61823.09;;;4.03;100.00
43818;BME280;29868;47.360;18.984;2023-11-21T00:14:37;61823.09;;;4.03;100.00
43818;BME280;29868;47.360;18.984;2023-11-21T00:17:04;61829.41;;;4.11;100.00
43818;BME280;29868;47.360;18.984;2023-11-21T00:19:30;61840.50;;;4.22;100.00
43818;BME280;29868;47.360;18.984;2023-11-21T00:21:56;61841.38;;;4.20;100.00
43818;BME280;29868;47.360;18.984;2023-11-21T00:24:24;61845.59;;;4.22;100.00
43818;BME280;29868;47.360;18.984;2023-11-21T00:26:50;61831.41;;;4.11;100.00
43818;BME280;29868;47.360;18.984;2023-11-21T00:29:15;61822.75;;;4.05;100.00
43818;BME280;29868;47.360;18.984;2023-11-21T00:31:43;61816.97;;;3.98;100.00
43818;BME280;29868;47.360;18.984;2023-11-21T00:34:08;61809.13;;;3.95;100.00
43818;BME280;29868;47.360;18.984;2023-11-21T00:36:34;61810.00;;;3.94;100.00
43818;BME280;29868;47.360;18.984;2023-11-21T00:39:00;61804.47;;;3.88;100.00
43818;BME280;29868;47.360;18.984;2023-11-21T00:41:27;61809.78;;;3.91;100.00
43818;BME280;29868;47.360;18.984;2023-11-21T00:43:53;61807.25;;;3.91;100.00
43818;BME280;29868;47.360;18.984;2023-11-21T00:46:19;61803.91;;;3.88;100.00
43818;BME280;29868;47.360;18.984;2023-11-21T00:48:44;61805.66;;;3.85;100.00
43818;BME280;29868;47.360;18.984;2023-11-21T00:51:10;61795.34;;;3.78;100.00
43818;BME280;29868;47.360;18.984;2023-11-21T00:53:35;61798.38;;;3.83;100.00
43818;BME280;29868;47.360;18.984;2023-11-21T00:56:01;61799.25;;;3.81;100.00
43818;BME280;29868;47.360;18.984;2023-11-21T00:58:26;61787.94;;;3.69;100.00
43818;BME280;29868;47.360;18.984;2023-11-21T01:00:52;61773.44;;;3.60;100.00
43818;BME280;29868;47.360;18.984;2023-11-21T01:03:18;61774.84;;;3.59;100.00
43818;BME280;29868;47.360;18.984;2023-11-21T01:05:44;61779.28;;;3.63;100.00
43818;BME280;29868;47.360;18.984;2023-11-21T01:08:11;61782.06;;;3.65;100.00
43818;BME280;29868;47.360;18.984;2023-11-21T01:10:36;61775.09;;;3.61;100.00
43818;BME280;29868;47.360;18.984;2023-11-21T01:13:02;61773.19;;;3.57;100.00
43818;BME280;29868;47.360;18.984;2023-11-21T01:15:30;61784.59;;;3.65;100.00
43818;BME280;29868;47.360;18.984;2023-11-21T01:17:55;61793.72;;;3.76;100.00
43818;BME280;29868;47.360;18.984;2023-11-21T01:20:21;61806.13;;;3.90;100.00
43818;BME280;29868;47.360;18.984;2023-11-21T01:22:46;61836.06;;;4.18;100.00
43818;BME280;29868;47.360;18.984;2023-11-21T01:25:14;61856.03;;;4.36;100.00
43818;BME280;29868;47.360;18.984;2023-11-21T01:27:41;61874.44;;;4.48;100.00
43818;BME280;29868;47.360;18.984;2023-11-21T01:30:07;61878.53;;;4.54;100.00
43818;BME280;29868;47.360;18.984;2023-11-21T01:32:39;61881.66;;;4.55;100.00
43818;BME280;29868;47.360;18.984;2023-11-21T01:35:05;61872.66;;;4.51;100.00
43818;BME280;29868;47.360;18.984;2023-11-21T01:37:31;61874.88;;;4.53;100.00
43818;BME280;29868;47.360;18.984;2023-11-21T01:39:58;61877.97;;;4.54;100.00
43818;BME280;29868;47.360;18.984;2023-11-21T01:42:24;61882.75;;;4.56;100.00
43818;BME280;29868;47.360;18.984;2023-11-21T01:44:49;61879.31;;;4.57;100.00
43818;BME280;29868;47.360;18.984;2023-11-21T01:47:16;61884.41;;;4.57;100.00
43818;BME280;29868;47.360;18.984;2023-11-21T01:49:45;61890.53;;;4.63;100.00
43818;BME280;29868;47.360;18.984;2023-11-21T01:52:11;61893.28;;;4.66;100.00
43818;BME280;29868;47.360;18.984;2023-11-21T01:54:37;61899.84;;;4.76;100.00
43818;BME280;29868;47.360;18.984;2023-11-21T01:57:04;61910.94;;;4.86;100.00
43818;BME280;29868;47.360;18.984;2023-11-21T01:59:36;61913.25;;;4.84;100.00
43818;BME280;29868;47.360;18.984;2023-11-21T02:02:06;61902.63;;;4.79;100.00
43818;BME280;29868;47.360;18.984;2023-11-21T02:04:35;61902.94;;;4.77;100.00
43818;BME280;29868;47.360;18.984;2023-11-21T02:07:02;61907.72;;;4.79;100.00
43818;BME280;29868;47.360;18.984;2023-11-21T02:09:31;61894.53;;;4.74;100.00
43818;BME280;29868;47.360;18.984;2023-11-21T02:11:58;61915.50;;;4.86;100.00
43818;BME280;29868;47.360;18.984;2023-11-21T02:14:25;61922.47;;;4.90;100.00
43818;BME280;29868;47.360;18.984;2023-11-21T02:16:52;61920.38;;;4.95;100.00
43818;BME280;29868;47.360;18.984;2023-11-21T02:19:19;61919.59;;;4.92;100.00
43818;BME280;29868;47.360;18.984;2023-11-21T02:21:49;61915.94;;;4.91;100.00
43818;BME280;29868;47.360;18.984;2023-11-21T02:24:17;61918.81;;;4.89;100.00
43818;BME280;29868;47.360;18.984;2023-11-21T02:26:43;61935.91;;;5.09;100.00
43818;BME280;29868;47.360;18.984;2023-11-21T02:29:08;61922.59;;;4.97;100.00
43818;BME280;29868;47.360;18.984;2023-11-21T02:31:37;61924.03;;;4.96;100.00
43818;BME280;29868;47.360;18.984;2023-11-21T02:34:11;61927.34;;;4.99;100.00
43818;BME280;29868;47.360;18.984;2023-11-21T02:36:38;61930.91;;;5.05;100.00
43818;BME280;29868;47.360;18.984;2023-11-21T02:39:04;61944.78;;;5.18;100.00
43818;BME280;29868;47.360;18.984;2023-11-21T02:41:29;61937.00;;;5.10;100.00
43818;BME280;29868;47.360;18.984;2023-11-21T02:43:54;61944.00;;;5.15;100.00
43818;BME280;29868;47.360;18.984;2023-11-21T02:46:20;61944.00;;;5.15;100.00
43818;BME280;29868;47.360;18.984;2023-11-21T02:48:45;61968.22;;;5.34;100.00
43818;BME280;29868;47.360;18.984;2023-11-21T02:51:11;61945.91;;;5.19;100.00
43818;BME280;29868;47.360;18.984;2023-11-21T02:53:36;61933.69;;;5.07;100.00
43818;BME280;29868;47.360;18.984;2023-11-21T02:56:04;61932.69;;;5.02;100.00
43818;BME280;29868;47.360;18.984;2023-11-21T02:58:29;61926.81;;;4.99;100.00
43818;BME280;29868;47.360;18.984;2023-11-21T03:00:55;61922.13;;;4.92;100.00
43818;BME280;29868;47.360;18.984;2023-11-21T03:03:21;61937.00;;;5.10;100.00
43818;BME280;29868;47.360;18.984;2023-11-21T03:05:49;61916.28;;;4.89;100.00
43818;BME280;29868;47.360;18.984;2023-11-21T03:08:14;61921.81;;;4.94;100.00
43818;BME280;29868;47.360;18.984;2023-11-21T03:10:39;61904.06;;;4.78;100.00
43818;BME280;29868;47.360;18.984;2023-11-21T03:13:05;61926.91;;;4.94;100.00
43818;BME280;29868;47.360;18.984;2023-11-21T03:15:30;61898.50;;;4.73;100.00
43818;BME280;29868;47.360;18.984;2023-11-21T03:17:58;61886.28;;;4.61;100.00
43818;BME280;29868;47.360;18.984;2023-11-21T03:20:23;61878.31;;;4.52;100.00
43818;BME280;29868;47.360;18.984;2023-11-21T03:22:48;61878.31;;;4.52;100.00
43818;BME280;29868;47.360;18.984;2023-11-21T03:25:15;61877.44;;;4.53;100.00
43818;BME280;29868;47.360;18.984;2023-11-21T03:27:42;61868.22;;;4.47;100.00
43818;BME280;29868;47.360;18.984;2023-11-21T03:30:10;61868.22;;;4.47;100.00
43818;BME280;29868;47.360;18.984;2023-11-21T03:32:36;61868.56;;;4.45;100.00
43818;BME280;29868;47.360;18.984;2023-11-21T03:35:02;61863.00;;;4.40;100.00
43818;BME280;29868;47.360;18.984;2023-11-21T03:37:27;61861.88;;;4.39;100.00
43818;BME280;29868;47.360;18.984;2023-11-21T03:39:54;61853.81;;;4.34;100.00
43818;BME280;29868;47.360;18.984;2023-11-21T03:42:20;61853.03;;;4.31;100.00
43818;BME280;29868;47.360;18.984;2023-11-21T03:44:45;61855.25;;;4.33;100.00
43818;BME280;29868;47.360;18.984;2023-11-21T03:47:11;61858.78;;;4.38;100.00
43818;BME280;29868;47.360;18.984;2023-11-21T03:49:37;61858.25;;;4.38;100.00
43818;BME280;29868;47.360;18.984;2023-11-21T03:52:03;61860.00;;;4.35;100.00
43818;BME280;29868;47.360;18.984;2023-11-21T03:54:29;61861.88;;;4.39;100.00
43818;BME280;29868;47.360;18.984;2023-11-21T03:56:54;61863.34;;;4.38;100.00
43818;BME280;29868;47.360;18.984;2023-11-21T03:59:19;61856.69;;;4.32;100.00
43818;BME280;29868;47.360;18.984;2023-11-21T04:01:45;61861.13;;;4.36;100.00
43818;BME280;29868;47.360;18.984;2023-11-21T04:04:10;61861.13;;;4.36;100.00
43818;BME280;29868;47.360;18.984;2023-11-21T04:06:35;61858.25;;;4.38;100.00
43818;BME280;29868;47.360;18.984;2023-11-21T04:09:02;61856.59;;;4.36;100.00
43818;BME280;29868;47.360;18.984;2023-11-21T04:11:29;61859.69;;;4.37;100.00
43818;BME280;29868;47.360;18.984;2023-11-21T04:13:55;61867.44;;;4.44;100.00
43818;BME280;29868;47.360;18.984;2023-11-21T04:16:20;61870.22;;;4.47;100.00
43818;BME280;29868;47.360;18.984;2023-11-21T04:18:46;61881.84;;;4.57;100.00
43818;BME280;29868;47.360;18.984;2023-11-21T04:21:11;61918.47;;;4.91;100.00
43818;BME280;29868;47.360;18.984;2023-11-21T04:23:37;61901.84;;;4.76;100.00
43818;BME280;29868;47.360;18.984;2023-11-21T04:26:02;61892.63;;;4.70;100.00
43818;BME280;29868;47.360;18.984;2023-11-21T04:28:28;61902.38;;;4.76;100.00
43818;BME280;29868;47.360;18.984;2023-11-21T04:30:53;61897.06;;;4.74;100.00
43818;BME280;29868;47.360;18.984;2023-11-21T04:33:19;61912.94;;;4.86;100.00
43818;BME280;29868;47.360;18.984;2023-11-21T04:35:44;61911.38;;;4.80;100.00
43818;BME280;29868;47.360;18.984;2023-11-21T04:38:10;61893.50;;;4.68;100.00
43818;BME280;29868;47.360;18.984;2023-11-21T04:40:35;61907.38;;;4.81;100.00
43818;BME280;29868;47.360;18.984;2023-11-21T04:43:00;61921.25;;;4.94;100.00
43818;BME280;29868;47.360;18.984;2023-11-21T04:45:26;61905.94;;;4.82;100.00
43818;BME280;29868;47.360;18.984;2023-11-21T04:47:52;61904.06;;;4.78;100.00
43818;BME280;29868;47.360;18.984;2023-11-21T04:50:17;61908.16;;;4.84;100.00
43818;BME280;29868;47.360;18.984;2023-11-21T04:52:43;61922.13;;;4.92;100.00
43818;BME280;29868;47.360;18.984;2023-11-21T04:55:08;61914.03;;;4.87;100.00
43818;BME280;29868;47.360;18.984;2023-11-21T04:57:36;61916.28;;;4.89;100.00
43818;BME280;29868;47.360;18.984;2023-11-21T05:00:01;61924.50;;;5.01;100.00
43818;BME280;29868;47.360;18.984;2023-11-21T05:02:31;61932.13;;;5.01;100.00
43818;BME280;29868;47.360;18.984;2023-11-21T05:04:56;61935.91;;;5.09;100.00
43818;BME280;29868;47.360;18.984;2023-11-21T05:07:22;61934.69;;;5.01;100.00
43818;BME280;29868;47.360;18.984;2023-11-21T05:09:47;61928.13;;;5.02;100.00
43818;BME280;29868;47.360;18.984;2023-11-21T05:12:13;61943.78;;;5.12;100.00
43818;BME280;29868;47.360;18.984;2023-11-21T05:14:39;61930.91;;;5.05;100.00
43818;BME280;29868;47.360;18.984;2023-11-21T05:17:05;61936.81;;;5.08;100.00
43818;BME280;29868;47.360;18.984;2023-11-21T05:19:30;61937.91;;;5.09;100.00
43818;BME280;29868;47.360;18.984;2023-11-21T05:21:56;61954.00;;;5.24;100.00
43818;BME280;29868;47.360;18.984;2023-11-21T05:24:21;61959.91;;;5.27;100.00
43818;BME280;29868;47.360;18.984;2023-11-21T05:26:47;61968.97;;;5.37;100.00
43818;BME280;29868;47.360;18.984;2023-11-21T05:29:12;61954.31;;;5.22;100.00
43818;BME280;29868;47.360;18.984;2023-11-21T05:31:37;61943.44;;;5.14;100.00
43818;BME280;29868;47.360;18.984;2023-11-21T05:34:03;61960.09;;;5.29;100.00
43818;BME280;29868;47.360;18.984;2023-11-21T05:36:30;61952.13;;;5.20;100.00
43818;BME280;29868;47.360;18.984;2023-11-21T05:38:56;61946.78;;;5.17;100.00
43818;BME280;29868;47.360;18.984;2023-11-21T05:41:21;61935.59;;;5.11;100.00
43818;BME280;29868;47.360;18.984;2023-11-21T05:43:46;61937.34;;;5.08;100.00
43818;BME280;29868;47.360;18.984;2023-11-21T05:46:12;61950.00;;;5.25;100.00
43818;BME280;29868;47.360;18.984;2023-11-21T05:48:38;61952.56;;;5.25;100.00
43818;BME280;29868;47.360;18.984;2023-11-21T05:51:06;61960.09;;;5.29;100.00
43818;BME280;29868;47.360;18.984;2023-11-21T05:53:31;61964.00;;;5.33;100.00
43818;BME280;29868;47.360;18.984;2023-11-21T05:55:57;61967.56;;;5.39;100.00
43818;BME280;29868;47.360;18.984;2023-11-21T05:58:22;61981.00;;;5.46;100.00
43818;BME280;29868;47.360;18.984;2023-11-21T06:00:48;61979.22;;;5.49;100.00
43818;BME280;29868;47.360;18.984;2023-11-21T06:03:13;61984.88;;;5.50;100.00
43818;BME280;29868;47.360;18.984;2023-11-21T06:05:39;61988.09;;;5.57;100.00
43818;BME280;29868;47.360;18.984;2023-11-21T06:08:04;62005.31;;;5.73;100.00
43818;BME280;29868;47.360;18.984;2023-11-21T06:10:31;62029.28;;;5.91;100.00
43818;BME280;29868;47.360;18.984;2023-11-21T06:12:57;62014.31;;;5.77;100.00
43818;BME280;29868;47.360;18.984;2023-11-21T06:15:23;62010.41;;;5.73;100.00
43818;BME280;29868;47.360;18.984;2023-11-21T06:17:49;62012.31;;;5.77;100.00
43818;BME280;29868;47.360;18.984;2023-11-21T06:20:17;62013.19;;;5.76;100.00
43818;BME280;29868;47.360;18.984;2023-11-21T06:22:45;62016.97;;;5.84;100.00
43818;BME280;29868;47.360;18.984;2023-11-21T06:25:11;62038.44;;;6.01;100.00
43818;BME280;29868;47.360;18.984;2023-11-21T06:27:42;62056.22;;;6.18;100.00
43818;BME280;29868;47.360;18.984;2023-11-21T06:30:10;62064.00;;;6.25;100.00
43818;BME280;29868;47.360;18.984;2023-11-21T06:32:37;62052.88;;;6.15;100.00
43818;BME280;29868;47.360;18.984;2023-11-21T06:35:04;62056.53;;;6.16;100.00
43818;BME280;29868;47.360;18.984;2023-11-21T06:37:30;62050.66;;;6.13;100.00
43818;BME280;29868;47.360;18.984;2023-11-21T06:39:57;62070.34;;;6.33;100.00
43818;BME280;29868;47.360;18.984;2023-11-21T06:42:24;62072.66;;;6.30;100.00
43818;BME280;29868;47.360;18.984;2023-11-21T06:44:49;62081.56;;;6.39;100.00
43818;BME280;29868;47.360;18.984;2023-11-21T06:47:19;62088.13;;;6.49;100.00
43818;BME280;29868;47.360;18.984;2023-11-21T06:49:45;62098.47;;;6.56;100.00
43818;BME280;29868;47.360;18.984;2023-11-21T06:52:13;62106.78;;;6.64;100.00
43818;BME280;29868;47.360;18.984;2023-11-21T06:54:38;62112.91;;;6.70;100.00
43818;BME280;29868;47.360;18.984;2023-11-21T06:57:04;62119.25;;;6.78;100.00
43818;BME280;29868;47.360;18.984;2023-11-21T06:59:29;62128.72;;;6.87;100.00
43818;BME280;29868;47.360;18.984;2023-11-21T07:01:55;62133.59;;;6.84;100.00
43818;BME280;29868;47.360;18.984;2023-11-21T07:04:20;62142.16;;;6.94;100.00
43818;BME280;29868;47.360;18.984;2023-11-21T07:06:45;62153.84;;;7.05;100.00
43818;BME280;29868;47.360;18.984;2023-11-21T07:09:11;62151.63;;;7.03;100.00
43818;BME280;29868;47.360;18.984;2023-11-21T07:11:37;62157.50;;;7.06;100.00
43818;BME280;29868;47.360;18.984;2023-11-21T07:14:03;62158.50;;;7.12;100.00
43818;BME280;29868;47.360;18.984;2023-11-21T07:16:36;62170.75;;;7.23;100.00
43818;BME280;29868;47.360;18.984;2023-11-21T07:19:05;62164.06;;;7.17;100.00
43818;BME280;29868;47.360;18.984;2023-11-21T07:21:34;62177.00;;;7.24;100.00
43818;BME280;29868;47.360;18.984;2023-11-21T07:24:03;62159.50;;;7.17;100.00
43818;BME280;29868;47.360;18.984;2023-11-21T07:26:29;62172.97;;;7.25;100.00
43818;BME280;29868;47.360;18.984;2023-11-21T07:28:55;62171.88;;;7.24;100.00
43818;BME280;29868;47.360;18.984;2023-11-21T07:31:22;62181.09;;;7.30;100.00
43818;BME280;29868;47.360;18.984;2023-11-21T07:33:48;62185.78;;;7.37;100.00
43818;BME280;29868;47.360;18.984;2023-11-21T07:36:14;62180.97;;;7.35;100.00
43818;BME280;29868;47.360;18.984;2023-11-21T07:38:40;62188.88;;;7.37;100.00
43818;BME280;29868;47.360;18.984;2023-11-21T07:41:06;62191.88;;;7.42;100.00
43818;BME280;29868;47.360;18.984;2023-11-21T07:43:34;62194.44;;;7.42;100.00
43818;BME280;29868;47.360;18.984;2023-11-21T07:46:01;62192.44;;;7.43;100.00
43818;BME280;29868;47.360;18.984;2023-11-21T07:48:32;62202.03;;;7.47;100.00
43818;BME280;29868;47.360;18.984;2023-11-21T07:50:58;62203.91;;;7.51;100.00
43818;BME280;29868;47.360;18.984;2023-11-21T07:53:24;62212.25;;;7.59;100.00
43818;BME280;29868;47.360;18.984;2023-11-21T07:55:58;62209.69;;;7.59;100.00
43818;BME280;29868;47.360;18.984;2023-11-21T07:58:23;62215.25;;;7.64;100.00
43818;BME280;29868;47.360;18.984;2023-11-21T08:00:49;62223.59;;;7.71;100.00
43818;BME280;29868;47.360;18.984;2023-11-21T08:03:15;62232.31;;;7.77;100.00
43818;BME280;29868;47.360;18.984;2023-11-21T08:05:41;62228.59;;;7.76;100.00
43818;BME280;29868;47.360;18.984;2023-11-21T08:08:07;62239.44;;;7.88;100.00
43818;BME280;29868;47.360;18.984;2023-11-21T08:10:33;62238.97;;;7.83;100.00
43818;BME280;29868;47.360;18.984;2023-11-21T08:12:58;62237.53;;;7.84;100.00
43818;BME280;29868;47.360;18.984;2023-11-21T08:15:24;62240.09;;;7.84;100.00
43818;BME280;29868;47.360;18.984;2023-11-21T08:17:50;62245.09;;;7.89;100.00
43818;BME280;29868;47.360;18.984;2023-11-21T08:20:16;62248.66;;;7.94;100.00
43818;BME280;29868;47.360;18.984;2023-11-21T08:22:43;62249.75;;;7.95;100.00
43818;BME280;29868;47.360;18.984;2023-11-21T08:25:09;62252.31;;;7.95;100.00
43818;BME280;29868;47.360;18.984;2023-11-21T08:27:35;62272.72;;;8.12;100.00
43818;BME280;29868;47.360;18.984;2023-11-21T08:30:01;62281.28;;;8.22;100.00
43818;BME280;29868;47.360;18.984;2023-11-21T08:32:27;62283.50;;;8.24;100.00
43818;BME280;29868;47.360;18.984;2023-11-21T08:34:53;62288.53;;;8.28;100.00
43818;BME280;29868;47.360;18.984;2023-11-21T08:37:18;62297.69;;;8.39;100.00
43818;BME280;29868;47.360;18.984;2023-11-21T08:39:44;62306.94;;;8.45;100.00
43818;BME280;29868;47.360;18.984;2023-11-21T08:42:09;62295.78;;;8.35;100.00
43818;BME280;29868;47.360;18.984;2023-11-21T08:44:35;62300.25;;;8.39;100.00
43818;BME280;29868;47.360;18.984;2023-11-21T08:47:00;62288.63;;;8.36;100.00
43818;BME280;29868;47.360;18.984;2023-11-21T08:49:26;62297.69;;;8.39;100.00
43818;BME280;29868;47.360;18.984;2023-11-21T08:51:53;62310.59;;;8.46;100.00
43818;BME280;29868;47.360;18.984;2023-11-21T08:54:20;62318.63;;;8.56;100.00
43818;BME280;29868;47.360;18.984;2023-11-21T08:56:46;62325.88;;;8.63;100.00
43818;BME280;29868;47.360;18.984;2023-11-21T08:59:13;62312.50;;;8.50;100.00
43818;BME280;29868;47.360;18.984;2023-11-21T09:01:39;62316.41;;;8.54;100.00
43818;BME280;29868;47.360;18.984;2023-11-21T09:04:05;62319.19;;;8.57;100.00
43818;BME280;29868;47.360;18.984;2023-11-21T09:06:30;62332.31;;;8.66;100.00
43818;BME280;29868;47.360;18.984;2023-11-21T09:08:56;62344.47;;;8.82;100.00
43818;BME280;29868;47.360;18.984;2023-11-21T09:11:21;62370.44;;;9.04;100.00
43818;BME280;29868;47.360;18.984;2023-11-21T09:13:46;62346.34;;;8.86;100.00
43818;BME280;29868;47.360;18.984;2023-11-21T09:16:13;62370.44;;;9.04;100.00
43818;BME280;29868;47.360;18.984;2023-11-21T09:18:38;62375.47;;;9.08;100.00
43818;BME280;29868;47.360;18.984;2023-11-21T09:21:04;62369.53;;;9.05;100.00
43818;BME280;29868;47.360;18.984;2023-11-21T09:23:30;62379.38;;;9.12;100.00
43818;BME280;29868;47.360;18.984;2023-11-21T09:25:55;62386.63;;;9.18;100.00
43818;BME280;29868;47.360;18.984;2023-11-21T09:28:22;62382.38;;;9.17;100.00
43818;BME280;29868;47.360;18.984;2023-11-21T09:30:47;62378.25;;;9.11;100.00
43818;BME280;29868;47.360;18.984;2023-11-21T09:33:15;62391.28;;;9.25;100.00
43818;BME280;29868;47.360;18.984;2023-11-21T09:35:40;62403.88;;;9.34;100.00
43818;BME280;29868;47.360;18.984;2023-11-21T09:38:06;62424.53;;;9.53;100.00
43818;BME280;29868;47.360;18.984;2023-11-21T09:40:36;62416.16;;;9.45;100.00
43818;BME280;29868;47.360;18.984;2023-11-21T09:43:06;62405.78;;;9.38;100.00
43818;BME280;29868;47.360;18.984;2023-11-21T09:45:35;62419.84;;;9.46;100.00
43818;BME280;29868;47.360;18.984;2023-11-21T09:48:01;62432.66;;;9.58;100.00
43818;BME280;29868;47.360;18.984;2023-11-21T09:50:27;62417.81;;;9.47;100.00
43818;BME280;29868;47.360;18.984;2023-11-21T09:53:19;62418.72;;;9.45;100.00
43818;BME280;29868;47.360;18.984;2023-11-21T09:55:51;62424.28;;;9.50;100.00
43818;BME280;29868;47.360;18.984;2023-11-21T09:58:18;62416.16;;;9.45;100.00
43818;BME280;29868;47.360;18.984;2023-11-21T10:00:48;62418.84;;;9.53;100.00
43818;BME280;29868;47.360;18.984;2023-11-21T10:03:15;62429.53;;;9.58;100.00
43818;BME280;29868;47.360;18.984;2023-11-21T10:05:45;62434.00;;;9.62;100.00
43818;BME280;29868;47.360;18.984;2023-11-21T10:08:12;62410.03;;;9.40;100.00
43818;BME280;29868;47.360;18.984;2023-11-21T10:10:44;62426.53;;;9.53;100.00
43818;BME280;29868;47.360;18.984;2023-11-21T10:13:12;62437.34;;;9.65;100.00
43818;BME280;29868;47.360;18.984;2023-11-21T10:15:38;62439.03;;;9.66;100.00
43818;BME280;29868;47.360;18.984;2023-11-21T10:18:05;62447.16;;;9.71;100.00
43818;BME280;29868;47.360;18.984;2023-11-21T10:20:32;62444.81;;;9.74;100.00
43818;BME280;29868;47.360;18.984;2023-11-21T10:23:03;62453.19;;;9.82;100.00
43818;BME280;29868;47.360;18.984;2023-11-21T10:25:29;62457.44;;;9.83;100.00
43818;BME280;29868;47.360;18.984;2023-11-21T10:27:59;62456.75;;;9.87;100.00
43818;BME280;29868;47.360;18.984;2023-11-21T10:30:38;62467.81;;;9.90;100.00
43818;BME280;29868;47.360;18.984;2023-11-21T10:33:07;62470.03;;;9.92;100.00
43818;BME280;29868;47.360;18.984;2023-11-21T10:35:46;62468.59;;;9.93;100.00
43818;BME280;29868;47.360;18.984;2023-11-21T10:38:18;62477.16;;;10.04;100.00
43818;BME280;29868;47.360;18.984;2023-11-21T10:40:46;62484.78;;;10.08;100.00
43818;BME280;29868;47.360;18.984;2023-11-21T10:43:13;62487.56;;;10.11;100.00
43818;BME280;29868;47.360;18.984;2023-11-21T10:45:40;62494.81;;;10.17;100.00
43818;BME280;29868;47.360;18.984;2023-11-21T10:48:07;62492.00;;;10.15;100.00
43818;BME280;29868;47.360;18.984;2023-11-21T10:50:41;62496.69;;;10.21;100.00
43818;BME280;29868;47.360;18.984;2023-11-21T10:53:07;62495.91;;;10.18;100.00
43818;BME280;29868;47.360;18.984;2023-11-21T10:55:33;62498.38;;;10.23;100.00
43818;BME280;29868;47.360;18.984;2023-11-21T10:58:01;62500.06;;;10.24;100.00
43818;BME280;29868;47.360;18.984;2023-11-21T11:00:28;62487.91;;;10.09;100.00
43818;BME280;29868;47.360;18.984;2023-11-21T11:02:55;62496.47;;;10.19;100.00
43818;BME280;29868;47.360;18.984;2023-11-21T11:05:22;62498.72;;;10.21;100.00
43818;BME280;29868;47.360;18.984;2023-11-21T11:07:59;62497.38;;;10.17;100.00
43818;BME280;29868;47.360;18.984;2023-11-21T11:10:27;62490.34;;;10.13;100.00
43818;BME280;29868;47.360;18.984;2023-11-21T11:12:54;62486.13;;;10.12;100.00
43818;BME280;29868;47.360;18.984;2023-11-21T11:15:21;62497.06;;;10.19;100.00
43818;BME280;29868;47.360;18.984;2023-11-21T11:17:46;62488.34;;;10.14;100.00
43818;BME280;29868;47.360;18.984;2023-11-21T11:20:14;62495.38;;;10.18;100.00
43818;BME280;29868;47.360;18.984;2023-11-21T11:22:56;62501.19;;;10.26;100.00
43818;BME280;29868;47.360;18.984;2023-11-21T11:25:44;62501.50;;;10.23;100.00
43818;BME280;29868;47.360;18.984;2023-11-21T11:28:51;62513.25;;;10.34;100.00
43818;BME280;29868;47.360;18.984;2023-11-21T11:31:36;62497.06;;;10.19;100.00
43818;BME280;29868;47.360;18.984;2023-11-21T11:34:23;62490.56;;;10.16;100.00
43818;BME280;29868;47.360;18.984;2023-11-21T11:37:05;62509.13;;;10.28;100.00
43818;BME280;29868;47.360;18.984;2023-11-21T11:39:36;62505.66;;;10.30;100.00
43818;BME280;29868;47.360;18.984;2023-11-21T11:42:06;62503.97;;;10.28;100.00
43818;BME280;29868;47.360;18.984;2023-11-21T11:47:23;62509.91;;;10.31;100.00
43818;BME280;29868;47.360;18.984;2023-11-21T11:50:00;62510.88;;;10.37;100.00
43818;BME280;29868;47.360;18.984;2023-11-21T11:52:42;62497.06;;;10.19;100.00
43818;BME280;29868;47.360;18.984;2023-11-21T11:55:12;62503.97;;;10.28;100.00
43818;BME280;29868;47.360;18.984;2023-11-21T11:57:40;62506.56;;;10.28;100.00
43818;BME280;29868;47.360;18.984;2023-11-21T12:00:13;62523.28;;;10.43;100.00
43818;BME280;29868;47.360;18.984;2023-11-21T12:02:48;62510.47;;;10.32;100.00
43818;BME280;29868;47.360;18.984;2023-11-21T12:05:16;62520.16;;;10.43;100.00
43818;BME280;29868;47.360;18.984;2023-11-21T12:10:15;62543.41;;;10.62;100.00
43818;BME280;29868;47.360;18.984;2023-11-21T12:12:49;62539.81;;;10.56;100.00
43818;BME280;29868;47.360;18.984;2023-11-21T12:15:15;62541.94;;;10.63;100.00
43818;BME280;29868;47.360;18.984;2023-11-21T12:17:42;62548.28;;;10.71;100.00
43818;BME280;29868;47.360;18.984;2023-11-21T12:20:12;62560.69;;;10.78;100.00
43818;BME280;29868;47.360;18.984;2023-11-21T12:22:50;62554.56;;;10.72;100.00
43818;BME280;29868;47.360;18.984;2023-11-21T12:25:18;62554.00;;;10.71;100.00
43818;BME280;29868;47.360;18.984;2023-11-21T12:27:50;62541.16;;;10.60;100.00
43818;BME280;29868;47.360;18.984;2023-11-21T12:30:24;62556.00;;;10.71;100.00
43818;BME280;29868;47.360;18.984;2023-11-21T12:32:51;62559.03;;;10.76;100.00
43818;BME280;29868;47.360;18.984;2023-11-21T12:35:18;62556.22;;;10.74;100.00
43818;BME280;29868;47.360;18.984;2023-11-21T12:37:45;62545.28;;;10.66;100.00
43818;BME280;29868;47.360;18.984;2023-11-21T12:40:12;62546.94;;;10.67;100.00
43818;BME280;29868;47.360;18.984;2023-11-21T12:42:41;62548.41;;;10.66;100.00
43818;BME280;29868;47.360;18.984;2023-11-21T12:47:48;62552.88;;;10.70;100.00
43818;BME280;29868;47.360;18.984;2023-11-21T12:50:18;62539.47;;;10.58;100.00
43818;BME280;29868;47.360;18.984;2023-11-21T12:52:47;62534.47;;;10.54;100.00
43818;BME280;29868;47.360;18.984;2023-11-21T12:55:20;62527.06;;;10.52;100.00
43818;BME280;29868;47.360;18.984;2023-11-21T12:57:51;62512.13;;;10.33;100.00